createdAt,value
2017-11-30T00:00:43.515Z,70.30
2017-11-30T00:01:43.409Z,69.00
2017-11-30T00:03:36.359Z,71.20
2017-11-30T00:04:36.259Z,77.90
2017-11-30T00:06:29.174Z,78.40
2017-11-30T00:07:29.104Z,81.10
2017-11-30T00:09:22.058Z,71.40
2017-11-30T00:10:21.962Z,74.90
2017-11-30T00:12:14.905Z,69.20
2017-11-30T00:13:14.804Z,76.10
2017-11-30T00:15:07.726Z,81.40
2017-11-30T00:16:07.719Z,89.70
2017-11-30T00:18:00.547Z,84.70
2017-11-30T00:19:00.513Z,85.80
2017-11-30T00:20:53.429Z,87.10
2017-11-30T00:21:53.364Z,86.50
2017-11-30T00:23:46.314Z,101.00
2017-11-30T00:24:46.216Z,98.70
2017-11-30T00:26:39.166Z,88.40
2017-11-30T00:27:39.085Z,97.90
2017-11-30T00:29:31.948Z,83.40
2017-11-30T00:30:31.918Z,82.40
2017-11-30T00:32:24.828Z,73.40
2017-11-30T00:33:24.772Z,69.00
2017-11-30T00:35:17.709Z,62.10
2017-11-30T00:36:17.620Z,72.80
2017-11-30T00:38:10.528Z,80.30
2017-11-30T00:39:10.473Z,87.00
2017-11-30T00:41:03.346Z,94.00
2017-11-30T00:42:03.377Z,86.80
2017-11-30T00:43:56.220Z,90.20
2017-11-30T00:44:56.167Z,100.30
2017-11-30T00:46:49.117Z,78.70
2017-11-30T00:47:49.011Z,73.30
2017-11-30T00:49:41.970Z,78.20
2017-11-30T00:50:41.860Z,79.10
2017-11-30T00:52:34.754Z,84.90
2017-11-30T00:53:34.778Z,75.00
2017-11-30T00:55:27.662Z,75.80
2017-11-30T00:56:27.565Z,72.60
2017-11-30T00:58:20.519Z,68.90
2017-11-30T00:59:20.417Z,70.70
2017-11-30T01:01:13.326Z,81.20
2017-11-30T01:02:13.280Z,80.60
2017-11-30T01:04:06.157Z,78.40
2017-11-30T01:05:06.119Z,81.00
2017-11-30T01:06:59.026Z,82.50
2017-11-30T01:07:58.965Z,81.30
2017-11-30T01:09:51.920Z,92.60
2017-11-30T01:10:51.825Z,104.50
2017-11-30T01:12:44.766Z,101.80
2017-11-30T01:13:44.674Z,99.80
2017-11-30T01:15:37.550Z,99.80
2017-11-30T01:16:37.532Z,99.40
2017-11-30T01:18:30.475Z,81.70
2017-11-30T01:19:30.383Z,88.50
2017-11-30T01:21:23.315Z,87.60
2017-11-30T01:22:23.224Z,93.90
2017-11-30T01:24:16.174Z,88.30
2017-11-30T01:25:16.075Z,92.10
2017-11-30T01:27:08.952Z,86.80
2017-11-30T01:28:08.929Z,95.20
2017-11-30T01:30:01.869Z,77.90
2017-11-30T01:31:01.774Z,77.00
2017-11-30T01:32:54.718Z,85.80
2017-11-30T01:33:54.621Z,94.40
2017-11-30T01:35:47.591Z,98.10
2017-11-30T01:36:47.473Z,90.80
2017-11-30T01:38:40.355Z,80.00
2017-11-30T01:39:40.390Z,78.80
2017-11-30T01:41:33.285Z,73.40
2017-11-30T01:42:33.170Z,75.00
2017-11-30T01:44:26.055Z,72.40
2017-11-30T01:45:26.026Z,69.10
2017-11-30T01:47:18.937Z,80.70
2017-11-30T01:48:18.883Z,79.40
2017-11-30T01:50:11.753Z,84.40
2017-11-30T01:51:11.787Z,86.30
2017-11-30T01:53:04.674Z,71.70
2017-11-30T01:54:04.570Z,71.00
2017-11-30T01:55:57.455Z,74.60
2017-11-30T01:56:57.437Z,71.30
2017-11-30T01:58:50.340Z,75.80
2017-11-30T01:59:50.294Z,73.60
2017-11-30T02:01:44.252Z,76.50
2017-11-30T02:02:43.129Z,87.00
2017-11-30T02:04:36.041Z,94.00
2017-11-30T02:05:35.975Z,90.30
2017-11-30T02:07:28.938Z,85.20
2017-11-30T02:08:28.830Z,83.10
2017-11-30T02:10:22.252Z,81.00
2017-11-30T02:11:22.253Z,71.90
2017-11-30T02:13:15.141Z,77.70
2017-11-30T02:14:15.046Z,81.00
2017-11-30T02:16:07.996Z,81.40
2017-11-30T02:17:07.889Z,91.80
2017-11-30T02:19:00.842Z,90.70
2017-11-30T02:20:00.748Z,95.10
2017-11-30T02:21:53.662Z,100.90
2017-11-30T02:22:53.589Z,112.60
2017-11-30T02:24:46.541Z,117.40
2017-11-30T02:25:46.541Z,135.00
2017-11-30T02:27:39.399Z,135.00
2017-11-30T02:28:39.294Z,140.10
2017-11-30T02:30:32.184Z,149.80
2017-11-30T02:31:32.153Z,147.80
2017-11-30T02:33:25.090Z,147.80
2017-11-30T02:34:24.990Z,154.10
2017-11-30T02:36:17.948Z,146.70
2017-11-30T02:37:17.850Z,142.40
2017-11-30T02:39:10.798Z,144.50
2017-11-30T02:40:10.689Z,148.00
2017-11-30T02:42:03.584Z,137.20
2017-11-30T02:43:03.550Z,140.00
2017-11-30T02:44:56.512Z,127.50
2017-11-30T02:45:56.401Z,129.90
2017-11-30T02:47:49.277Z,128.10
2017-11-30T02:48:49.307Z,122.70
2017-11-30T02:50:42.194Z,123.90
2017-11-30T02:51:42.101Z,130.20
2017-11-30T02:53:34.984Z,120.60
2017-11-30T02:54:34.943Z,118.60
2017-11-30T02:56:27.895Z,129.00
2017-11-30T02:57:27.802Z,128.50
2017-11-30T02:59:20.679Z,129.60
2017-11-30T03:00:20.641Z,133.00
2017-11-30T03:02:13.602Z,132.40
2017-11-30T03:03:13.506Z,118.10
2017-11-30T03:05:06.384Z,129.60
2017-11-30T03:06:06.407Z,120.00
2017-11-30T03:07:59.267Z,127.20
2017-11-30T03:08:59.261Z,130.40
2017-11-30T03:10:52.082Z,114.10
2017-11-30T03:11:52.046Z,124.50
2017-11-30T03:13:45.017Z,112.40
2017-11-30T03:14:44.906Z,118.60
2017-11-30T03:16:37.778Z,121.90
2017-11-30T03:17:37.814Z,111.50
2017-11-30T03:19:30.711Z,108.70
2017-11-30T03:20:30.598Z,107.50
2017-11-30T03:22:23.489Z,116.10
2017-11-30T03:23:23.460Z,104.80
2017-11-30T03:25:16.366Z,110.80
2017-11-30T03:26:16.296Z,109.60
2017-11-30T03:28:09.266Z,109.80
2017-11-30T03:29:09.159Z,114.10
2017-11-30T03:31:02.063Z,110.70
2017-11-30T03:32:02.000Z,115.90
2017-11-30T03:33:54.957Z,120.70
2017-11-30T03:34:54.850Z,115.70
2017-11-30T03:36:47.769Z,121.60
2017-11-30T03:37:47.711Z,117.50
2017-11-30T03:39:40.658Z,118.30
2017-11-30T03:40:40.555Z,120.00
2017-11-30T03:42:33.473Z,119.80
2017-11-30T03:43:33.413Z,124.50
2017-11-30T03:45:26.296Z,124.00
2017-11-30T03:46:26.266Z,134.20
2017-11-30T03:48:19.176Z,126.80
2017-11-30T03:49:19.111Z,124.40
2017-11-30T03:51:12.086Z,119.30
2017-11-30T03:52:11.965Z,136.20
2017-11-30T03:54:04.911Z,118.10
2017-11-30T03:55:04.813Z,129.30
2017-11-30T03:56:57.763Z,135.10
2017-11-30T03:57:57.664Z,137.10
2017-11-30T03:59:50.611Z,140.10
2017-11-30T04:00:50.513Z,132.90
2017-11-30T04:02:44.422Z,135.50
2017-11-30T04:03:44.447Z,134.10
2017-11-30T04:05:37.297Z,129.30
2017-11-30T04:06:37.239Z,134.80
2017-11-30T04:08:30.116Z,130.10
2017-11-30T04:09:30.085Z,132.80
2017-11-30T04:11:23.034Z,133.50
2017-11-30T04:12:22.929Z,137.70
2017-11-30T04:14:15.819Z,139.00
2017-11-30T04:15:15.841Z,138.00
2017-11-30T04:17:08.697Z,153.90
2017-11-30T04:18:08.634Z,141.10
2017-11-30T04:20:01.518Z,149.60
2017-11-30T04:21:01.487Z,158.20
2017-11-30T04:22:54.392Z,163.40
2017-11-30T04:23:54.352Z,163.90
2017-11-30T04:25:47.226Z,174.80
2017-11-30T04:26:47.252Z,186.60
2017-11-30T04:28:40.090Z,198.80
2017-11-30T04:29:40.097Z,190.50
2017-11-30T04:31:32.925Z,222.50
2017-11-30T04:32:32.888Z,194.70
2017-11-30T04:34:25.794Z,227.20
2017-11-30T04:35:25.733Z,224.30
2017-11-30T04:37:18.624Z,216.30
2017-11-30T04:38:18.589Z,213.70
2017-11-30T04:40:11.548Z,210.80
2017-11-30T04:41:11.442Z,199.60
2017-11-30T04:43:04.318Z,192.90
2017-11-30T04:44:04.284Z,188.70
2017-11-30T04:45:57.205Z,181.10
2017-11-30T04:46:57.133Z,189.30
2017-11-30T04:48:50.086Z,178.00
2017-11-30T04:49:49.987Z,181.40
2017-11-30T04:51:43.968Z,190.70
2017-11-30T04:52:42.833Z,203.80
2017-11-30T04:54:35.726Z,203.90
2017-11-30T04:55:35.685Z,183.10
2017-11-30T04:57:28.594Z,191.70
2017-11-30T04:58:28.535Z,177.30
2017-11-30T05:00:21.493Z,182.30
2017-11-30T05:01:21.400Z,178.70
2017-11-30T05:03:14.308Z,193.70
2017-11-30T05:04:14.302Z,205.50
2017-11-30T05:06:07.125Z,201.90
2017-11-30T05:07:07.155Z,204.00
2017-11-30T05:09:00.044Z,243.10
2017-11-30T05:09:59.947Z,271.10
2017-11-30T05:11:52.828Z,282.20
2017-11-30T05:12:52.802Z,311.70
2017-11-30T05:14:45.700Z,356.10
2017-11-30T05:15:45.647Z,382.40
2017-11-30T05:17:38.526Z,380.80
2017-11-30T05:18:38.499Z,372.00
2017-11-30T05:20:31.450Z,380.70
2017-11-30T05:21:31.348Z,379.70
2017-11-30T05:23:24.228Z,442.30
2017-11-30T05:24:24.195Z,429.90
2017-11-30T05:26:17.112Z,438.20
2017-11-30T05:27:17.047Z,411.00
2017-11-30T05:29:09.927Z,386.30
2017-11-30T05:30:09.892Z,422.20
2017-11-30T05:32:02.814Z,438.80
2017-11-30T05:33:02.817Z,394.10
2017-11-30T05:34:55.693Z,449.20
2017-11-30T05:35:55.600Z,430.50
2017-11-30T05:37:48.517Z,354.30
2017-11-30T05:38:48.448Z,352.80
2017-11-30T05:40:41.332Z,353.80
2017-11-30T05:41:41.361Z,303.20
2017-11-30T05:43:34.220Z,302.80
2017-11-30T05:44:34.212Z,299.60
2017-11-30T05:46:27.045Z,257.70
2017-11-30T05:47:27.009Z,247.20
2017-11-30T05:49:19.962Z,262.80
2017-11-30T05:50:19.867Z,254.20
2017-11-30T05:52:12.807Z,189.40
2017-11-30T05:53:12.697Z,201.30
2017-11-30T05:55:05.652Z,177.70
2017-11-30T05:56:05.545Z,175.90
2017-11-30T05:57:58.509Z,168.20
2017-11-30T05:58:58.403Z,175.30
2017-11-30T06:00:51.311Z,170.30
2017-11-30T06:01:51.256Z,185.40
2017-11-30T06:03:44.127Z,157.10
2017-11-30T06:04:44.063Z,164.30
2017-11-30T06:06:36.952Z,160.50
2017-11-30T06:07:36.869Z,161.70
2017-11-30T06:09:29.735Z,186.30
2017-11-30T06:10:29.702Z,190.30
2017-11-30T06:12:22.614Z,186.40
2017-11-30T06:13:22.612Z,185.70
2017-11-30T06:15:15.436Z,251.00
2017-11-30T06:16:15.433Z,265.30
2017-11-30T06:18:08.318Z,282.70
2017-11-30T06:19:08.313Z,232.20
2017-11-30T06:21:01.097Z,265.90
2017-11-30T06:22:01.049Z,287.80
2017-11-30T06:23:54.061Z,325.90
2017-11-30T06:24:53.967Z,396.00
2017-11-30T06:26:46.902Z,437.00
2017-11-30T06:27:46.868Z,323.40
2017-11-30T06:29:39.764Z,509.40
2017-11-30T06:30:39.651Z,366.60
2017-11-30T06:32:32.570Z,378.90
2017-11-30T06:33:32.501Z,419.70
2017-11-30T06:35:25.424Z,343.30
2017-11-30T06:36:25.391Z,360.70
2017-11-30T06:38:18.235Z,361.40
2017-11-30T06:39:18.205Z,358.10
2017-11-30T06:41:11.160Z,316.90
2017-11-30T06:42:11.051Z,353.50
2017-11-30T06:44:04.001Z,401.20
2017-11-30T06:45:03.866Z,443.90
2017-11-30T06:46:56.723Z,475.40
2017-11-30T06:47:56.713Z,468.90
2017-11-30T06:49:49.606Z,429.50
2017-11-30T06:50:49.499Z,520.40
2017-11-30T06:52:42.462Z,512.20
2017-11-30T06:53:42.349Z,523.00
2017-11-30T06:55:35.299Z,554.40
2017-11-30T06:56:35.208Z,529.80
2017-11-30T06:58:28.173Z,586.40
2017-11-30T06:59:28.066Z,618.90
2017-11-30T07:01:21.010Z,585.40
2017-11-30T07:02:20.910Z,602.00
2017-11-30T07:04:13.825Z,711.90
2017-11-30T07:05:14.305Z,618.40
2017-11-30T07:06:13.732Z,654.70
2017-11-30T07:07:13.717Z,752.30
2017-11-30T07:08:13.855Z,735.60
2017-11-30T07:09:13.669Z,676.40
2017-11-30T07:10:13.621Z,695.60
2017-11-30T07:11:13.647Z,661.60
2017-11-30T07:12:13.567Z,468.60
2017-11-30T07:13:13.664Z,644.80
2017-11-30T07:14:13.521Z,598.20
2017-11-30T07:15:13.580Z,667.40
2017-11-30T07:16:13.460Z,527.10
2017-11-30T07:17:13.480Z,656.90
2017-11-30T07:18:13.431Z,604.90
2017-11-30T07:19:13.379Z,653.50
2017-11-30T07:20:13.360Z,713.50
2017-11-30T07:21:13.325Z,643.50
2017-11-30T07:22:13.296Z,671.30
2017-11-30T07:23:13.281Z,599.20
2017-11-30T07:24:13.245Z,630.60
2017-11-30T07:25:13.220Z,742.50
2017-11-30T07:26:13.185Z,532.50
2017-11-30T07:27:13.166Z,836.40
2017-11-30T07:28:13.127Z,727.80
2017-11-30T07:29:13.156Z,802.70
2017-11-30T07:30:13.077Z,703.90
2017-11-30T07:31:13.157Z,758.80
2017-11-30T07:32:13.017Z,731.80
2017-11-30T07:33:13.067Z,762.40
2017-11-30T07:34:12.963Z,934.60
2017-11-30T07:35:12.979Z,883.40
2017-11-30T07:36:12.906Z,914.10
2017-11-30T07:37:12.991Z,1035.60
2017-11-30T07:38:12.866Z,878.50
2017-11-30T07:39:12.899Z,1013.20
2017-11-30T07:40:12.800Z,929.00
2017-11-30T07:41:12.806Z,959.70
2017-11-30T07:42:12.752Z,980.30
2017-11-30T07:43:12.826Z,638.00
2017-11-30T07:44:12.691Z,596.40
2017-11-30T07:45:12.732Z,862.30
2017-11-30T07:46:12.634Z,783.60
2017-11-30T07:47:12.641Z,727.10
2017-11-30T07:48:12.580Z,636.60
2017-11-30T07:49:12.651Z,847.80
2017-11-30T07:50:12.523Z,802.50
2017-11-30T07:51:12.566Z,625.60
2017-11-30T07:52:12.474Z,801.10
2017-11-30T07:53:12.472Z,670.20
2017-11-30T07:54:12.439Z,551.10
2017-11-30T07:55:12.488Z,500.50
2017-11-30T07:56:12.355Z,503.70
2017-11-30T07:57:12.397Z,619.90
2017-11-30T07:58:12.298Z,539.00
2017-11-30T07:59:12.306Z,561.20
2017-11-30T08:00:12.250Z,571.10
2017-11-30T08:01:12.319Z,567.80
2017-11-30T08:02:12.185Z,567.20
2017-11-30T08:03:12.229Z,516.70
2017-11-30T08:04:12.141Z,477.80
2017-11-30T08:05:12.140Z,482.40
2017-11-30T08:06:12.091Z,404.20
2017-11-30T08:07:12.157Z,481.10
2017-11-30T08:08:12.030Z,407.20
2017-11-30T08:09:12.062Z,394.60
2017-11-30T08:10:11.975Z,438.00
2017-11-30T08:11:11.977Z,371.00
2017-11-30T08:12:11.919Z,375.20
2017-11-30T08:13:11.986Z,316.30
2017-11-30T08:14:11.876Z,428.60
2017-11-30T08:15:11.893Z,384.30
2017-11-30T08:16:11.833Z,292.80
2017-11-30T08:17:11.807Z,328.10
2017-11-30T08:18:11.763Z,339.40
2017-11-30T08:19:11.821Z,270.60
2017-11-30T08:20:11.706Z,343.20
2017-11-30T08:21:11.727Z,356.30
2017-11-30T08:22:11.639Z,257.40
2017-11-30T08:23:11.635Z,274.70
2017-11-30T08:24:11.590Z,253.90
2017-11-30T08:25:11.649Z,271.00
2017-11-30T08:26:11.558Z,249.90
2017-11-30T08:27:11.558Z,260.50
2017-11-30T08:28:11.481Z,239.60
2017-11-30T08:29:11.465Z,247.80
2017-11-30T08:30:11.435Z,252.40
2017-11-30T08:31:11.477Z,211.80
2017-11-30T08:32:11.388Z,240.70
2017-11-30T08:33:11.396Z,272.20
2017-11-30T08:34:11.317Z,229.30
2017-11-30T08:35:11.430Z,231.20
2017-11-30T08:36:11.285Z,223.10
2017-11-30T08:37:11.312Z,230.20
2017-11-30T08:38:11.219Z,245.60
2017-11-30T08:39:11.186Z,228.90
2017-11-30T08:40:11.149Z,201.80
2017-11-30T08:41:11.234Z,201.90
2017-11-30T08:42:11.097Z,204.20
2017-11-30T08:43:11.152Z,210.00
2017-11-30T08:44:11.044Z,259.00
2017-11-30T08:45:11.053Z,245.90
2017-11-30T08:46:10.992Z,237.70
2017-11-30T08:47:11.066Z,249.40
2017-11-30T08:48:10.947Z,256.50
2017-11-30T08:49:10.905Z,213.00
2017-11-30T08:50:10.983Z,207.20
2017-11-30T08:51:10.845Z,220.60
2017-11-30T08:52:10.898Z,215.30
2017-11-30T08:53:10.791Z,217.10
2017-11-30T08:54:10.769Z,237.10
2017-11-30T08:55:10.807Z,235.70
2017-11-30T08:56:10.719Z,258.80
2017-11-30T08:57:10.724Z,213.70
2017-11-30T08:58:10.661Z,240.80
2017-11-30T08:59:10.748Z,197.30
2017-11-30T09:00:10.608Z,228.70
2017-11-30T09:01:10.649Z,244.40
2017-11-30T09:02:10.546Z,256.60
2017-11-30T09:03:10.551Z,259.50
2017-11-30T09:04:10.495Z,240.20
2017-11-30T09:05:10.562Z,280.40
2017-11-30T09:06:10.439Z,235.90
2017-11-30T09:07:10.473Z,203.80
2017-11-30T09:08:10.383Z,219.70
2017-11-30T09:09:10.385Z,208.40
2017-11-30T09:10:10.331Z,223.00
2017-11-30T09:11:10.395Z,203.10
2017-11-30T09:12:10.272Z,214.80
2017-11-30T09:13:10.310Z,232.50
2017-11-30T09:14:10.228Z,240.70
2017-11-30T09:15:10.335Z,262.80
2017-11-30T09:16:10.168Z,218.40
2017-11-30T09:17:10.230Z,215.90
2017-11-30T09:18:10.131Z,180.60
2017-11-30T09:19:10.139Z,218.50
2017-11-30T09:20:10.057Z,224.20
2017-11-30T09:21:10.151Z,220.60
2017-11-30T09:22:10.015Z,256.20
2017-11-30T09:23:10.059Z,248.80
2017-11-30T09:24:09.953Z,312.50
2017-11-30T09:25:09.971Z,241.00
2017-11-30T09:26:09.899Z,205.90
2017-11-30T09:27:09.983Z,232.50
2017-11-30T09:28:09.841Z,263.60
2017-11-30T09:29:09.830Z,226.70
2017-11-30T09:30:09.825Z,209.90
2017-11-30T09:31:09.803Z,271.80
2017-11-30T09:32:09.738Z,292.00
2017-11-30T09:33:09.820Z,270.60
2017-11-30T09:34:09.679Z,248.20
2017-11-30T09:35:09.729Z,268.80
2017-11-30T09:36:09.625Z,276.30
2017-11-30T09:37:09.632Z,212.30
2017-11-30T09:38:09.576Z,240.20
2017-11-30T09:39:09.650Z,248.00
2017-11-30T09:40:09.525Z,264.60
2017-11-30T09:41:09.560Z,267.80
2017-11-30T09:42:09.602Z,243.50
2017-11-30T09:43:09.453Z,247.20
2017-11-30T09:44:09.468Z,241.90
2017-11-30T09:45:09.386Z,229.00
2017-11-30T09:46:09.383Z,231.30
2017-11-30T09:47:09.387Z,233.50
2017-11-30T09:48:09.300Z,245.90
2017-11-30T09:49:09.297Z,240.30
2017-11-30T09:50:09.258Z,205.20
2017-11-30T09:51:09.308Z,194.30
2017-11-30T09:52:09.191Z,162.10
2017-11-30T09:53:09.167Z,208.80
2017-11-30T09:54:09.225Z,201.00
2017-11-30T09:55:09.109Z,202.00
2017-11-30T09:56:09.136Z,180.80
2017-11-30T09:57:09.058Z,189.60
2017-11-30T09:58:09.040Z,185.40
2017-11-30T09:59:09.003Z,177.50
2017-11-30T10:00:09.061Z,177.20
2017-11-30T10:01:08.951Z,171.80
2017-11-30T10:02:08.972Z,181.10
2017-11-30T10:03:08.972Z,162.10
2017-11-30T10:04:08.876Z,185.70
2017-11-30T10:05:08.886Z,189.00
2017-11-30T10:06:08.814Z,209.50
2017-11-30T10:07:08.904Z,198.10
2017-11-30T10:08:08.769Z,208.10
2017-11-30T10:09:08.738Z,196.60
2017-11-30T10:10:08.813Z,195.80
2017-11-30T10:11:08.687Z,172.70
2017-11-30T10:12:08.674Z,195.60
2017-11-30T10:13:08.694Z,205.10
2017-11-30T10:14:08.636Z,175.00
2017-11-30T10:15:08.576Z,158.70
2017-11-30T10:16:08.640Z,156.20
2017-11-30T10:17:08.523Z,171.20
2017-11-30T10:18:08.556Z,143.40
2017-11-30T10:19:08.465Z,141.10
2017-11-30T10:20:08.463Z,152.50
2017-11-30T10:21:08.422Z,152.00
2017-11-30T10:22:08.475Z,165.80
2017-11-30T10:23:08.366Z,152.50
2017-11-30T10:24:08.393Z,152.90
2017-11-30T10:25:08.306Z,151.10
2017-11-30T10:26:08.400Z,128.60
2017-11-30T10:27:08.251Z,137.80
2017-11-30T10:28:08.309Z,137.60
2017-11-30T10:29:08.194Z,130.50
2017-11-30T10:30:08.225Z,126.70
2017-11-30T10:31:08.143Z,124.00
2017-11-30T10:32:08.233Z,143.40
2017-11-30T10:33:08.088Z,147.40
2017-11-30T10:34:08.154Z,139.50
2017-11-30T10:35:08.060Z,140.00
2017-11-30T10:36:08.054Z,146.50
2017-11-30T10:37:07.979Z,153.90
2017-11-30T10:38:08.065Z,146.40
2017-11-30T10:39:07.930Z,142.90
2017-11-30T10:40:07.995Z,130.70
2017-11-30T10:41:07.871Z,143.70
2017-11-30T10:42:07.852Z,147.90
2017-11-30T10:43:07.821Z,152.10
2017-11-30T10:44:07.895Z,153.90
2017-11-30T10:45:07.760Z,154.80
2017-11-30T10:46:07.809Z,130.70
2017-11-30T10:47:07.707Z,130.50
2017-11-30T10:48:07.724Z,123.10
2017-11-30T10:49:07.655Z,132.90
2017-11-30T10:50:07.726Z,123.10
2017-11-30T10:51:07.601Z,112.70
2017-11-30T10:52:07.641Z,115.90
2017-11-30T10:53:07.549Z,110.20
2017-11-30T10:54:07.523Z,100.10
2017-11-30T10:55:07.555Z,117.20
2017-11-30T10:56:07.460Z,114.50
2017-11-30T10:57:07.463Z,113.20
2017-11-30T10:58:07.414Z,119.80
2017-11-30T10:59:07.475Z,104.20
2017-11-30T11:00:07.360Z,126.80
2017-11-30T11:01:07.383Z,130.40
2017-11-30T11:02:07.309Z,108.40
2017-11-30T11:03:07.294Z,106.10
2017-11-30T11:04:07.264Z,127.30
2017-11-30T11:05:07.307Z,132.30
2017-11-30T11:06:07.194Z,112.10
2017-11-30T11:07:07.217Z,109.90
2017-11-30T11:08:07.140Z,108.60
2017-11-30T11:09:07.134Z,95.90
2017-11-30T11:10:07.087Z,96.20
2017-11-30T11:11:07.146Z,102.80
2017-11-30T11:12:07.034Z,98.70
2017-11-30T11:13:07.006Z,97.10
2017-11-30T11:14:06.976Z,98.60
2017-11-30T11:15:07.067Z,95.30
2017-11-30T11:16:06.925Z,96.50
2017-11-30T11:17:06.972Z,93.40
2017-11-30T11:18:06.984Z,81.30
2017-11-30T11:19:06.839Z,83.10
2017-11-30T11:20:06.891Z,87.50
2017-11-30T11:21:06.794Z,84.90
2017-11-30T11:22:06.802Z,82.80
2017-11-30T11:23:06.732Z,79.10
2017-11-30T11:24:06.720Z,78.00
2017-11-30T11:25:06.712Z,88.80
2017-11-30T11:26:06.674Z,85.10
2017-11-30T11:27:06.738Z,88.30
2017-11-30T11:28:06.597Z,88.00
2017-11-30T11:29:06.594Z,91.10
2017-11-30T11:30:06.645Z,90.70
2017-11-30T11:31:06.520Z,97.90
2017-11-30T11:32:06.568Z,89.30
2017-11-30T11:33:06.460Z,95.70
2017-11-30T11:34:06.463Z,98.00
2017-11-30T11:35:06.403Z,100.40
2017-11-30T11:36:06.476Z,87.90
2017-11-30T11:37:06.355Z,95.20
2017-11-30T11:38:06.428Z,82.40
2017-11-30T11:39:06.295Z,92.10
2017-11-30T11:40:06.292Z,94.30
2017-11-30T11:41:06.243Z,96.10
2017-11-30T11:42:06.307Z,93.70
2017-11-30T11:43:06.196Z,101.80
2017-11-30T11:44:06.216Z,103.90
2017-11-30T11:45:06.223Z,101.10
2017-11-30T11:46:06.125Z,95.80
2017-11-30T11:47:06.130Z,101.70
2017-11-30T11:48:06.065Z,102.10
2017-11-30T11:49:06.039Z,103.00
2017-11-30T11:50:06.000Z,103.20
2017-11-30T11:51:06.057Z,113.20
2017-11-30T11:52:05.944Z,116.30
2017-11-30T11:53:05.976Z,101.40
2017-11-30T11:54:05.892Z,105.80
2017-11-30T11:55:05.862Z,105.20
2017-11-30T11:56:05.834Z,107.70
2017-11-30T11:57:05.887Z,109.30
2017-11-30T11:58:05.784Z,112.70
2017-11-30T11:59:05.819Z,116.10
2017-11-30T12:00:05.731Z,120.50
2017-11-30T12:01:05.809Z,104.00
2017-11-30T12:02:05.668Z,106.00
2017-11-30T12:03:05.720Z,125.10
2017-11-30T12:04:05.618Z,114.20
2017-11-30T12:05:05.632Z,118.30
2017-11-30T12:06:05.562Z,126.90
2017-11-30T12:07:05.662Z,110.90
2017-11-30T12:08:05.504Z,104.70
2017-11-30T12:09:05.487Z,103.50
2017-11-30T12:10:05.704Z,93.30
2017-11-30T12:11:05.461Z,98.60
2017-11-30T12:12:05.401Z,89.20
2017-11-30T12:13:05.474Z,89.30
2017-11-30T12:14:05.351Z,101.80
2017-11-30T12:15:05.394Z,101.70
2017-11-30T12:16:05.297Z,96.30
2017-11-30T12:17:05.295Z,105.10
2017-11-30T12:18:05.243Z,98.20
2017-11-30T12:19:05.205Z,103.30
2017-11-30T12:20:05.184Z,100.30
2017-11-30T12:21:05.219Z,109.00
2017-11-30T12:22:05.131Z,107.60
2017-11-30T12:23:05.115Z,102.10
2017-11-30T12:24:05.079Z,88.70
2017-11-30T12:25:05.046Z,84.10
2017-11-30T12:26:05.042Z,94.30
2017-11-30T12:27:04.996Z,122.50
2017-11-30T12:28:05.055Z,120.10
2017-11-30T12:29:04.939Z,114.50
2017-11-30T12:30:04.916Z,126.00
2017-11-30T12:31:04.881Z,119.60
2017-11-30T12:32:04.872Z,119.80
2017-11-30T12:33:04.836Z,106.70
2017-11-30T12:34:04.888Z,125.70
2017-11-30T12:35:04.770Z,122.20
2017-11-30T12:36:04.798Z,124.60
2017-11-30T12:37:04.722Z,129.30
2017-11-30T12:38:04.810Z,171.00
2017-11-30T12:39:04.667Z,156.70
2017-11-30T12:40:04.718Z,134.70
2017-11-30T12:41:04.612Z,147.10
2017-11-30T12:42:04.631Z,135.10
2017-11-30T12:43:04.634Z,149.30
2017-11-30T12:44:04.528Z,165.50
2017-11-30T12:45:04.546Z,140.90
2017-11-30T12:46:04.473Z,155.20
2017-11-30T12:47:04.567Z,155.20
2017-11-30T12:48:04.459Z,157.70
2017-11-30T12:49:04.389Z,179.10
2017-11-30T12:50:04.476Z,183.90
2017-11-30T12:51:04.341Z,169.80
2017-11-30T12:52:04.389Z,157.00
2017-11-30T12:53:04.417Z,165.30
2017-11-30T12:54:04.261Z,180.40
2017-11-30T12:55:04.300Z,164.10
2017-11-30T12:56:04.210Z,188.10
2017-11-30T12:57:04.206Z,228.80
2017-11-30T12:58:04.153Z,212.00
2017-11-30T12:59:04.218Z,228.60
2017-11-30T13:00:04.089Z,188.90
2017-11-30T13:01:04.078Z,228.50
2017-11-30T13:02:04.043Z,165.80
2017-11-30T13:03:04.037Z,169.40
2017-11-30T13:04:03.982Z,173.90
2017-11-30T13:05:04.054Z,146.50
2017-11-30T13:06:03.943Z,131.70
2017-11-30T13:07:03.964Z,134.20
2017-11-30T13:08:03.876Z,144.50
2017-11-30T13:09:03.876Z,140.70
2017-11-30T13:10:03.825Z,121.10
2017-11-30T13:11:03.887Z,133.40
2017-11-30T13:12:03.776Z,133.30
2017-11-30T13:13:03.742Z,133.50
2017-11-30T13:14:03.800Z,139.50
2017-11-30T13:15:03.709Z,149.40
2017-11-30T13:16:03.710Z,165.90
2017-11-30T13:17:03.635Z,118.10
2017-11-30T13:18:03.608Z,123.70
2017-11-30T13:19:03.630Z,116.90
2017-11-30T13:20:03.553Z,115.20
2017-11-30T13:21:03.641Z,115.10
2017-11-30T13:22:03.501Z,125.30
2017-11-30T13:23:03.492Z,121.20
2017-11-30T13:24:03.447Z,135.30
2017-11-30T13:25:03.461Z,114.80
2017-11-30T13:26:03.397Z,137.80
2017-11-30T13:27:03.467Z,149.10
2017-11-30T13:28:03.336Z,154.90
2017-11-30T13:29:03.334Z,113.70
2017-11-30T13:30:03.312Z,121.70
2017-11-30T13:31:03.288Z,104.90
2017-11-30T13:32:03.230Z,133.20
2017-11-30T13:33:03.301Z,115.90
2017-11-30T13:34:03.176Z,83.80
2017-11-30T13:35:03.215Z,92.70
2017-11-30T13:36:03.122Z,112.70
2017-11-30T13:37:03.096Z,98.30
2017-11-30T13:38:03.071Z,101.10
2017-11-30T13:39:03.132Z,100.90
2017-11-30T13:40:03.017Z,106.60
2017-11-30T13:41:03.045Z,101.20
2017-11-30T13:42:02.958Z,118.80
2017-11-30T13:43:02.936Z,108.20
2017-11-30T13:44:02.964Z,94.60
2017-11-30T13:45:02.873Z,98.00
2017-11-30T13:46:02.870Z,96.80
2017-11-30T13:47:02.817Z,73.40
2017-11-30T13:48:02.791Z,79.60
2017-11-30T13:49:02.770Z,75.50
2017-11-30T13:50:02.795Z,78.10
2017-11-30T13:51:02.716Z,92.60
2017-11-30T13:52:02.703Z,79.60
2017-11-30T13:53:02.658Z,84.30
2017-11-30T13:54:02.719Z,73.90
2017-11-30T13:55:02.603Z,81.20
2017-11-30T13:56:02.627Z,87.00
2017-11-30T13:57:02.542Z,96.00
2017-11-30T13:58:02.539Z,91.00
2017-11-30T13:59:02.499Z,81.50
2017-11-30T14:00:02.551Z,89.10
2017-11-30T14:01:02.447Z,91.30
2017-11-30T14:02:02.462Z,96.00
2017-11-30T14:03:02.388Z,94.80
2017-11-30T14:04:02.471Z,91.30
2017-11-30T14:05:02.327Z,87.20
2017-11-30T14:06:02.379Z,82.00
2017-11-30T14:07:02.281Z,87.70
2017-11-30T14:08:02.289Z,88.10
2017-11-30T14:09:02.230Z,86.10
2017-11-30T14:10:02.305Z,79.40
2017-11-30T14:11:02.168Z,85.30
2017-11-30T14:12:02.210Z,78.50
2017-11-30T14:13:02.115Z,77.90
2017-11-30T14:14:02.122Z,80.90
2017-11-30T14:15:02.061Z,82.30
2017-11-30T14:16:02.133Z,76.30
2017-11-30T14:17:02.003Z,73.90
2017-11-30T14:18:02.058Z,78.20
2017-11-30T14:19:01.950Z,82.70
2017-11-30T14:20:01.952Z,85.00
2017-11-30T14:21:01.895Z,88.20
2017-11-30T14:22:01.911Z,79.40
2017-11-30T14:23:01.872Z,83.10
2017-11-30T14:24:01.831Z,78.40
2017-11-30T14:25:01.879Z,87.80
2017-11-30T14:26:01.751Z,82.10
2017-11-30T14:27:01.728Z,73.90
2017-11-30T14:28:01.797Z,69.80
2017-11-30T14:29:01.671Z,73.00
2017-11-30T14:30:01.715Z,74.40
2017-11-30T14:31:01.625Z,70.40
2017-11-30T14:32:01.617Z,77.30
2017-11-30T14:33:01.557Z,89.30
2017-11-30T14:34:01.598Z,73.90
2017-11-30T14:35:01.505Z,72.30
2017-11-30T14:36:01.550Z,59.60
2017-11-30T14:37:01.457Z,70.80
2017-11-30T14:38:01.452Z,63.30
2017-11-30T14:39:01.400Z,68.90
2017-11-30T14:40:01.459Z,79.00
2017-11-30T14:41:01.369Z,67.70
2017-11-30T14:42:01.374Z,57.10
2017-11-30T14:43:01.294Z,58.20
2017-11-30T14:44:01.280Z,71.10